Time;durP1;ratioP1;P1;durP2;ratioP2;P2;SDS_P1;SDS_P2;PMS_P1;PMS_P2;Temp;Humidity;BMP_temperature;BMP_pressure;BME280_temperature;BME280_humidity;BME280_pressure;Samples;Min_cycle;Max_cycle;Signal;HPM_P1;HPM_P2
2024/04/14 00:01:21;;;;;;;1.10;1.10;;;;;;;13.28;78.77;97550.47;5267745;27;20006;-62
2024/04/14 00:04:06;;;;;;;1.00;1.00;;;;;;;13.19;78.26;97518.53;5265993;27;20058;-62
2024/04/14 00:06:33;;;;;;;1.10;1.10;;;;;;;14.02;77.79;97645.38;5264607;27;20002;-64
2024/04/14 00:09:00;;;;;;;1.00;1.00;;;;;;;14.11;77.49;97643.09;5256718;27;20014;-60
2024/04/14 00:11:27;;;;;;;1.10;1.10;;;;;;;13.46;76.51;97529.28;5265591;27;20038;-61
2024/04/14 00:13:53;;;;;;;1.13;1.13;;;;;;;14.29;76.31;97638.59;5267085;27;20054;-61
2024/04/14 00:16:20;;;;;;;1.20;1.20;;;;;;;14.29;75.71;97649.72;5265647;27;20037;-63
2024/04/14 00:18:47;;;;;;;1.10;1.10;;;;;;;14.21;75.31;97620.16;5244007;27;20503;-61
2024/04/14 00:21:15;;;;;;;1.10;1.10;;;;;;;14.28;75.74;97648.91;5258435;27;20081;-62
2024/04/14 00:23:42;;;;;;;1.05;1.05;;;;;;;13.73;75.60;97570.97;5265515;27;20038;-62
2024/04/14 00:26:09;;;;;;;1.05;1.05;;;;;;;14.18;75.70;97632.06;5266917;27;20574;-62
2024/04/14 00:28:36;;;;;;;1.10;1.10;;;;;;;14.28;75.63;97645.31;5265310;27;20014;-61
2024/04/14 00:31:03;;;;;;;1.10;1.10;;;;;;;14.20;76.15;97640.81;5267245;27;20251;-62
2024/04/14 00:33:31;;;;;;;1.10;1.10;;;;;;;14.33;75.29;97637.44;5267001;27;20025;-62
2024/04/14 00:35:58;;;;;;;1.00;1.00;;;;;;;13.84;75.01;97555.19;5265956;27;20084;-63
2024/04/14 00:38:25;;;;;;;1.20;1.20;;;;;;;14.21;75.60;97648.00;5266700;27;20034;-61
2024/04/14 00:40:52;;;;;;;1.20;1.20;;;;;;;14.30;75.13;97645.75;5266291;27;20002;-61
2024/04/14 00:43:20;;;;;;;1.10;1.10;;;;;;;14.31;75.01;97637.00;5265427;27;20519;-61
2024/04/14 00:45:47;;;;;;;1.10;1.10;;;;;;;14.35;74.95;97640.63;5266380;27;20017;-61
2024/04/14 00:48:14;;;;;;;1.00;1.00;;;;;;;13.94;74.86;97576.81;5266818;27;20010;-62
2024/04/14 00:50:43;;;;;;;1.17;1.17;;;;;;;14.34;74.67;97635.44;5266672;27;20002;-62
2024/04/14 00:53:10;;;;;;;1.10;1.10;;;;;;;14.29;74.61;97646.94;5265359;27;20006;-62
2024/04/14 00:55:38;;;;;;;1.10;1.10;;;;;;;13.65;74.23;97543.06;5266640;27;20030;-62
2024/04/14 00:58:06;;;;;;;1.10;1.10;;;;;;;14.19;74.93;97653.97;5264719;27;20006;-62
2024/04/14 01:00:34;;;;;;;1.02;1.02;;;;;;;14.12;74.97;97639.13;5266681;27;20034;-62
2024/04/14 01:03:01;;;;;;;1.08;1.08;;;;;;;13.95;75.34;97639.69;5265388;27;20006;-61
2024/04/14 01:05:28;;;;;;;1.10;1.10;;;;;;;14.01;75.91;97654.91;5267112;27;20006;-62
2024/04/14 01:07:55;;;;;;;1.00;1.00;;;;;;;13.82;76.04;97629.97;5267581;27;20042;-62
2024/04/14 01:10:23;;;;;;;1.10;1.10;;;;;;;13.97;75.69;97637.34;5267459;27;20264;-61
2024/04/14 01:12:50;;;;;;;1.10;1.10;;;;;;;13.96;75.57;97630.19;5266944;27;20010;-62
2024/04/14 01:15:18;;;;;;;1.08;1.08;;;;;;;13.39;75.76;97547.84;5264528;27;20041;-64
2024/04/14 01:17:45;;;;;;;1.10;1.10;;;;;;;13.89;76.12;97635.63;5266571;27;20373;-62
2024/04/14 01:20:13;;;;;;;1.10;1.10;;;;;;;13.87;75.80;97632.41;5264222;27;20030;-63
2024/04/14 01:22:40;;;;;;;1.00;1.00;;;;;;;12.93;80.47;97638.09;5267133;27;20476;-62
2024/04/14 01:25:07;;;;;;;0.90;0.90;;;;;;;12.75;80.88;97582.19;5263984;27;20563;-61
2024/04/14 01:27:34;;;;;;;1.00;1.00;;;;;;;12.85;80.38;97576.00;5266497;27;20017;-62
2024/04/14 01:30:05;;;;;;;1.00;1.00;;;;;;;13.44;79.37;97625.44;5265802;27;20013;-62
2024/04/14 01:32:39;;;;;;;1.10;1.10;;;;;;;13.40;78.34;97602.34;5265967;26;20017;-61
2024/04/14 01:35:09;;;;;;;1.10;1.10;;;;;;;13.25;78.82;97612.44;5266085;27;20006;-62
2024/04/14 01:37:36;;;;;;;1.00;1.00;;;;;;;12.95;78.89;97567.03;5266454;27;20002;-63
2024/04/14 01:40:03;;;;;;;1.00;1.00;;;;;;;13.44;78.63;97617.91;5266477;27;20062;-63
2024/04/14 01:42:30;;;;;;;1.00;1.00;;;;;;;13.39;78.76;97622.97;5266561;27;20014;-62
2024/04/14 01:44:57;;;;;;;1.00;1.00;;;;;;;13.46;78.26;97618.34;5267195;27;20021;-62
2024/04/14 01:47:24;;;;;;;1.02;1.02;;;;;;;12.48;78.01;97477.69;5269873;27;20002;-62
2024/04/14 01:49:51;;;;;;;1.00;1.00;;;;;;;13.39;78.08;97621.00;5268273;27;20326;-63
2024/04/14 01:52:18;;;;;;;1.00;1.00;;;;;;;13.40;78.42;97625.38;5269547;27;20016;-62
2024/04/14 01:54:45;;;;;;;1.00;1.00;;;;;;;13.07;78.30;97583.53;5269128;27;20401;-62
2024/04/14 01:57:11;;;;;;;1.10;1.10;;;;;;;12.65;78.23;97493.84;5269165;27;20018;-62
2024/04/14 01:59:38;;;;;;;0.93;0.93;;;;;;;13.47;77.86;97622.72;5269242;27;20014;-63
2024/04/14 02:02:05;;;;;;;1.00;1.00;;;;;;;13.53;77.70;97618.44;5269470;27;20002;-62
2024/04/14 02:04:32;;;;;;;1.10;1.10;;;;;;;13.63;77.49;97622.53;5269717;27;20010;-63
2024/04/14 02:07:00;;;;;;;1.00;1.00;;;;;;;13.66;76.37;97622.59;5268603;27;20007;-63
2024/04/14 02:09:27;;;;;;;1.10;1.10;;;;;;;13.49;77.33;97625.94;5269465;27;20499;-62
2024/04/14 02:11:53;;;;;;;1.00;1.00;;;;;;;13.46;77.52;97617.53;5269418;27;20010;-62
2024/04/14 02:14:21;;;;;;;0.90;0.90;;;;;;;13.40;77.49;97614.25;5269590;27;20002;-61
2024/04/14 02:16:47;;;;;;;1.00;1.00;;;;;;;13.41;77.59;97615.06;5267378;27;20006;-61
2024/04/14 02:19:14;;;;;;;1.10;1.10;;;;;;;13.38;77.79;97627.75;5269193;27;20021;-62
2024/04/14 02:21:42;;;;;;;1.00;1.00;;;;;;;13.33;78.06;97614.16;5268331;27;20043;-62
2024/04/14 02:24:10;;;;;;;1.00;1.00;;;;;;;13.30;78.25;97617.69;5269302;27;20035;-62
2024/04/14 02:26:37;;;;;;;1.00;1.00;;;;;;;13.33;77.70;97635.59;5268343;27;20034;-62
2024/04/14 02:29:03;;;;;;;1.00;1.00;;;;;;;12.85;78.31;97592.66;5266648;27;20461;-62
2024/04/14 02:31:30;;;;;;;0.90;0.90;;;;;;;12.96;79.14;97624.25;5268483;27;20021;-62
2024/04/14 02:33:57;;;;;;;1.10;1.10;;;;;;;13.09;79.32;97636.81;5268989;27;20883;-62
2024/04/14 02:36:27;;;;;;;1.00;1.00;;;;;;;12.78;79.02;97563.94;5268506;27;20799;-62
2024/04/14 02:38:55;;;;;;;1.10;1.10;;;;;;;13.14;78.76;97622.59;5269044;27;20006;-62
2024/04/14 02:41:22;;;;;;;1.00;1.00;;;;;;;12.96;78.31;97579.75;5267835;27;20017;-62
2024/04/14 02:43:49;;;;;;;0.90;0.90;;;;;;;13.33;77.27;97608.59;5267778;27;20489;-61
2024/04/14 02:46:16;;;;;;;1.00;1.00;;;;;;;13.39;77.66;97629.34;5266867;27;20038;-62
2024/04/14 02:48:48;;;;;;;1.05;1.05;;;;;;;13.42;77.13;97639.72;5268471;27;20017;-61
2024/04/14 02:51:15;;;;;;;0.95;0.95;;;;;;;13.39;77.19;97634.09;5268284;27;20013;-63
2024/04/14 02:53:42;;;;;;;1.00;1.00;;;;;;;13.41;77.53;97632.56;5266660;27;20025;-61
2024/04/14 02:56:09;;;;;;;1.00;1.00;;;;;;;13.43;77.14;97629.41;5268015;27;20007;-62
2024/04/14 02:58:36;;;;;;;1.05;1.05;;;;;;;12.67;78.09;97547.09;5268058;27;20058;-62
2024/04/14 03:01:03;;;;;;;1.00;1.00;;;;;;;13.31;77.92;97638.75;5265879;27;20356;-61
2024/04/14 03:03:30;;;;;;;1.00;1.00;;;;;;;13.27;77.72;97626.78;5268356;27;20079;-64
2024/04/14 03:06:02;;;;;;;1.00;1.00;;;;;;;13.11;77.45;97601.09;5268204;27;20304;-62
2024/04/14 03:08:29;;;;;;;1.00;1.00;;;;;;;12.77;81.04;97652.09;5268692;27;20003;-61
2024/04/14 03:10:58;;;;;;;0.90;0.90;;;;;;;12.46;80.73;97585.63;5266059;27;20007;-62
2024/04/14 03:13:25;;;;;;;0.90;0.90;;;;;;;12.84;81.01;97630.00;5267881;27;20725;-61
2024/04/14 03:15:52;;;;;;;1.02;1.02;;;;;;;12.92;80.81;97637.28;5268742;27;20018;-62
2024/04/14 03:18:19;;;;;;;1.00;1.00;;;;;;;12.95;79.95;97628.19;5268434;27;20013;-63
2024/04/14 03:21:00;;;;;;;0.93;0.93;;;;;;;12.98;79.81;97624.69;5268001;27;20060;-61
2024/04/14 03:23:27;;;;;;;1.00;1.00;;;;;;;12.98;78.75;97624.69;5267981;27;20433;-63
2024/04/14 03:25:55;;;;;;;1.10;1.10;;;;;;;12.90;78.99;97634.06;5267587;27;20006;-61
2024/04/14 03:28:24;;;;;;;1.00;1.00;;;;;;;12.93;78.87;97627.75;5267801;27;20603;-62
2024/04/14 03:30:52;;;;;;;0.98;0.98;;;;;;;12.30;79.37;97548.81;5267868;27;20049;-61
2024/04/14 03:33:19;;;;;;;1.00;1.00;;;;;;;12.88;79.60;97624.50;5268136;27;20006;-61
2024/04/14 03:35:46;;;;;;;0.90;0.90;;;;;;;12.54;79.54;97576.25;5268244;27;20006;-61
2024/04/14 03:38:12;;;;;;;0.98;0.98;;;;;;;12.51;81.69;97654.00;5267573;27;20358;-63
2024/04/14 03:40:39;;;;;;;0.90;0.90;;;;;;;12.39;81.57;97602.19;5267908;27;20014;-62
2024/04/14 03:43:06;;;;;;;1.00;1.00;;;;;;;10.79;80.65;97328.63;5267659;27;20374;-61
2024/04/14 03:45:33;;;;;;;0.90;0.90;;;;;;;12.43;81.20;97644.72;5261620;27;20013;-62
2024/04/14 03:48:00;;;;;;;0.90;0.90;;;;;;;12.38;82.51;97642.22;5280845;27;20010;-62
2024/04/14 03:50:27;;;;;;;1.00;1.00;;;;;;;12.47;82.43;97642.78;5268260;27;20014;-63
2024/04/14 03:52:54;;;;;;;1.10;1.10;;;;;;;12.15;81.20;97580.28;5267759;27;20034;-61
2024/04/14 03:55:21;;;;;;;0.90;0.90;;;;;;;12.59;80.41;97634.31;5267009;27;20010;-61
2024/04/14 03:57:47;;;;;;;0.90;0.90;;;;;;;12.25;80.58;97601.88;5267245;27;20018;-63
2024/04/14 04:00:14;;;;;;;1.00;1.00;;;;;;;12.52;81.52;97655.63;5265769;27;20010;-61
2024/04/14 04:02:41;;;;;;;0.93;0.93;;;;;;;12.31;82.77;97633.78;5266799;27;20397;-61
2024/04/14 04:05:08;;;;;;;1.00;1.00;;;;;;;12.49;82.15;97651.56;5266721;27;20133;-61
2024/04/14 04:07:35;;;;;;;0.90;0.90;;;;;;;12.70;81.57;97652.00;5266460;27;20016;-61
2024/04/14 04:10:02;;;;;;;0.90;0.90;;;;;;;12.40;81.21;97598.22;5265845;27;20361;-61
2024/04/14 04:12:29;;;;;;;1.00;1.00;;;;;;;12.92;79.89;97644.81;5268098;27;20018;-62
2024/04/14 04:14:56;;;;;;;0.90;0.90;;;;;;;13.03;78.69;97652.22;5267183;27;20006;-61
2024/04/14 04:17:23;;;;;;;1.00;1.00;;;;;;;13.01;79.10;97642.66;5267091;27;20007;-61
2024/04/14 04:19:50;;;;;;;0.90;0.90;;;;;;;13.13;78.76;97642.44;5266751;27;20034;-61
2024/04/14 04:22:17;;;;;;;1.00;1.00;;;;;;;10.92;77.74;97267.16;5267315;27;20007;-60
2024/04/14 04:24:44;;;;;;;1.10;1.10;;;;;;;12.76;78.16;97575.44;5264953;27;20014;-61
2024/04/14 04:27:11;;;;;;;1.00;1.00;;;;;;;13.39;77.78;97648.84;5267196;27;20003;-61
2024/04/14 04:29:37;;;;;;;1.00;1.00;;;;;;;12.91;77.70;97619.00;5266510;27;20085;-62
2024/04/14 04:32:04;;;;;;;1.10;1.10;;;;;;;13.67;75.92;97646.47;5267587;27;20017;-62
2024/04/14 04:34:31;;;;;;;1.10;1.10;;;;;;;12.93;79.69;97661.13;5266969;27;20395;-61
2024/04/14 04:36:58;;;;;;;0.95;0.95;;;;;;;12.34;80.42;97569.16;5265074;27;20018;-62
2024/04/14 04:39:25;;;;;;;1.00;1.00;;;;;;;12.89;79.16;97601.88;5264904;27;20002;-61
2024/04/14 04:41:52;;;;;;;1.00;1.00;;;;;;;13.37;78.45;97653.97;5265025;27;20365;-61
2024/04/14 04:44:19;;;;;;;1.00;1.00;;;;;;;13.32;78.86;97651.53;5266303;27;20015;-61
2024/04/14 04:46:46;;;;;;;1.10;1.10;;;;;;;13.15;77.93;97585.25;5265030;27;20020;-62
2024/04/14 04:49:12;;;;;;;1.00;1.00;;;;;;;13.77;76.34;97633.88;5266502;27;20598;-61
2024/04/14 04:51:39;;;;;;;1.00;1.00;;;;;;;14.09;75.47;97657.41;5267342;27;20006;-61
2024/04/14 04:54:06;;;;;;;1.10;1.10;;;;;;;13.77;74.14;97644.25;5267576;27;20003;-61
2024/04/14 04:56:33;;;;;;;1.08;1.08;;;;;;;14.40;73.50;97664.59;5264799;27;20006;-62
2024/04/14 04:59:00;;;;;;;1.10;1.10;;;;;;;14.54;73.12;97646.03;5266319;27;20006;-62
2024/04/14 05:01:27;;;;;;;1.08;1.08;;;;;;;14.78;72.34;97656.66;5266204;27;20002;-62
2024/04/14 05:03:54;;;;;;;1.20;1.20;;;;;;;15.01;71.85;97659.28;5264919;27;20893;-62
2024/04/14 05:06:21;;;;;;;1.40;1.40;;;;;;;14.97;71.08;97624.94;5266705;27;20018;-62
2024/04/14 05:08:48;;;;;;;1.20;1.20;;;;;;;15.23;70.47;97641.53;5265229;27;20377;-62
2024/04/14 05:11:14;;;;;;;1.30;1.30;;;;;;;15.11;70.08;97619.53;5264715;27;20020;-62
2024/04/14 05:13:41;;;;;;;1.40;1.40;;;;;;;15.66;69.40;97657.47;5266511;27;20006;-64
2024/04/14 05:16:08;;;;;;;1.40;1.40;;;;;;;15.77;68.39;97663.94;5266327;27;20017;-62
2024/04/14 05:18:35;;;;;;;1.35;1.35;;;;;;;15.98;67.09;97655.66;5264611;27;20021;-61
2024/04/14 05:21:03;;;;;;;1.38;1.38;;;;;;;16.04;66.75;97667.28;5266196;27;20006;-64
2024/04/14 05:23:30;;;;;;;1.48;1.48;;;;;;;15.70;65.65;97591.25;5266936;27;20358;-65
2024/04/14 05:25:59;;;;;;;1.27;1.27;;;;;;;16.18;65.76;97662.56;5266418;27;20630;-62
2024/04/14 05:28:26;;;;;;;1.55;1.55;;;;;;;16.00;65.65;97628.13;5266822;27;20013;-62
2024/04/14 05:30:53;;;;;;;1.58;1.58;;;;;;;16.41;65.42;97665.88;5265687;27;20378;-62
2024/04/14 05:33:20;;;;;;;1.50;1.50;;;;;;;16.57;65.36;97663.56;5264705;27;20074;-62
2024/04/14 05:35:57;;;;;;;1.55;1.55;;;;;;;16.52;66.25;97666.75;5265887;27;20006;-61
2024/04/14 05:38:24;;;;;;;1.35;1.35;;;;;;;16.48;65.18;97615.59;5266728;27;20378;-61
2024/04/14 05:40:51;;;;;;;1.58;1.58;;;;;;;16.84;64.33;97663.22;5265261;27;20457;-62
2024/04/14 05:43:18;;;;;;;1.60;1.60;;;;;;;16.37;62.51;97563.59;5266916;27;20457;-61
2024/04/14 05:45:45;;;;;;;1.70;1.70;;;;;;;17.15;62.61;97648.50;5265945;27;20340;-62
2024/04/14 05:48:12;;;;;;;1.58;1.58;;;;;;;16.89;62.28;97601.28;5266059;27;20007;-62
2024/04/14 05:50:39;;;;;;;1.45;1.45;;;;;;;17.47;61.11;97649.31;5263815;27;20018;-61
2024/04/14 05:53:06;;;;;;;1.67;1.67;;;;;;;17.02;60.18;97544.53;5265837;27;20009;-61
2024/04/14 05:55:33;;;;;;;1.75;1.75;;;;;;;17.74;59.53;97631.72;5265533;27;20006;-62
2024/04/14 05:58:00;;;;;;;1.80;1.80;;;;;;;18.09;58.38;97647.66;5236109;27;20007;-61
2024/04/14 06:00:27;;;;;;;1.80;1.80;;;;;;;18.24;58.06;97643.56;5271227;27;20047;-62
2024/04/14 06:02:55;;;;;;;2.00;2.00;;;;;;;18.44;57.90;97647.56;5263826;27;20107;-61
2024/04/14 06:05:22;;;;;;;1.70;1.70;;;;;;;18.41;57.58;97637.16;5265407;27;20417;-61
2024/04/14 06:07:49;;;;;;;1.80;1.80;;;;;;;18.73;56.92;97649.00;5263728;27;20006;-63
2024/04/14 06:10:16;;;;;;;1.98;1.98;;;;;;;18.93;56.77;97647.31;5265833;27;20081;-61
2024/04/14 06:12:42;;;;;;;2.03;2.03;;;;;;;18.98;54.75;97610.38;5266441;27;20003;-62
2024/04/14 06:15:09;;;;;;;2.05;2.05;;;;;;;19.46;54.22;97647.75;5265485;27;20017;-62
2024/04/14 06:17:36;;;;;;;1.90;1.90;;;;;;;19.34;52.28;97594.06;5266308;27;20062;-62
2024/04/14 06:20:04;;;;;;;2.10;2.10;;;;;;;19.78;52.32;97646.66;5265936;27;20022;-61
2024/04/14 06:22:31;;;;;;;2.03;2.03;;;;;;;19.79;53.11;97642.66;5265563;27;20014;-62
2024/04/14 06:24:58;;;;;;;1.95;1.95;;;;;;;19.55;53.08;97611.53;5265046;27;20014;-62
2024/04/14 06:27:25;;;;;;;2.10;2.10;;;;;;;19.83;54.04;97615.28;5263955;27;20649;-61
2024/04/14 06:29:52;;;;;;;1.90;1.90;;;;;;;19.96;54.21;97647.28;5265253;27;20492;-62
2024/04/14 06:32:19;;;;;;;2.00;2.00;;;;;;;19.98;52.50;97644.88;5266371;27;20446;-61
2024/04/14 06:34:46;;;;;;;2.08;2.08;;;;;;;20.13;51.24;97640.69;5266901;27;20022;-62
2024/04/14 06:37:18;;;;;;;2.00;2.00;;;;;;;20.33;51.60;97644.50;5256526;27;20002;-61
2024/04/14 06:39:45;;;;;;;2.08;2.08;;;;;;;20.46;51.26;97643.53;5268507;27;20002;-63
2024/04/14 06:42:13;;;;;;;2.13;2.13;;;;;;;20.45;52.21;97644.78;5266811;27;20007;-61
2024/04/14 06:44:42;;;;;;;1.95;1.95;;;;;;;20.65;50.75;97647.72;5268343;27;20007;-62
2024/04/14 06:47:10;;;;;;;2.17;2.17;;;;;;;20.79;50.86;97644.72;5268281;27;20381;-63
2024/04/14 06:49:37;;;;;;;2.10;2.10;;;;;;;20.54;49.94;97605.66;5268810;27;20012;-63
2024/04/14 06:52:05;;;;;;;2.15;2.15;;;;;;;20.77;49.73;97641.53;5268212;27;20335;-61
2024/04/14 06:54:32;;;;;;;2.10;2.10;;;;;;;21.16;49.76;97633.38;5269339;27;20003;-62
2024/04/14 06:56:59;;;;;;;2.00;2.00;;;;;;;21.28;48.96;97603.78;5269625;27;20014;-63
2024/04/14 06:59:26;;;;;;;2.45;2.38;;;;;;;21.52;48.16;97634.38;5269559;27;20021;-61
2024/04/14 07:01:52;;;;;;;2.10;2.10;;;;;;;20.99;46.60;97521.75;5268056;27;20058;-61
2024/04/14 07:04:19;;;;;;;2.05;2.05;;;;;;;21.82;46.38;97642.75;5268266;27;20002;-60
2024/04/14 07:06:47;;;;;;;2.40;2.33;;;;;;;21.70;46.48;97642.56;5267273;27;20077;-61
2024/04/14 07:09:14;;;;;;;2.22;2.22;;;;;;;21.97;45.71;97635.63;5267866;27;20022;-62
2024/04/14 07:11:40;;;;;;;2.35;2.35;;;;;;;22.16;43.99;97632.03;5267197;27;20019;-64
2024/04/14 07:14:07;;;;;;;2.25;2.25;;;;;;;22.33;43.96;97630.94;5266024;27;20006;-62
2024/04/14 07:16:35;;;;;;;2.58;2.47;;;;;;;22.59;44.44;97634.06;5264232;27;20082;-62
2024/04/14 07:19:02;;;;;;;2.50;2.40;;;;;;;22.81;44.60;97632.38;5264622;27;20042;-62
2024/04/14 07:21:29;;;;;;;2.60;2.50;;;;;;;22.81;44.06;97626.72;5236147;27;20476;-62
2024/04/14 07:23:56;;;;;;;2.40;2.35;;;;;;;22.66;44.97;97631.88;5264655;27;20034;-62
2024/04/14 07:26:23;;;;;;;2.50;2.40;;;;;;;22.70;44.55;97626.16;5265976;27;20003;-62
2024/04/14 07:28:50;;;;;;;2.60;2.50;;;;;;;22.94;43.72;97630.44;5266744;27;20030;-62
2024/04/14 07:31:17;;;;;;;2.50;2.40;;;;;;;23.12;43.90;97631.66;5267247;27;20017;-63
2024/04/14 07:33:46;;;;;;;2.58;2.47;;;;;;;23.41;43.24;97629.00;5268202;27;20435;-61
2024/04/14 07:36:13;;;;;;;2.90;2.80;;;;;;;23.36;42.99;97589.94;5267635;27;20010;-63
2024/04/14 07:38:39;;;;;;;2.95;2.85;;;;;;;22.79;42.51;97465.31;5267177;27;20098;-62
2024/04/14 07:41:07;;;;;;;2.80;2.70;;;;;;;24.04;42.44;97627.41;5267473;27;20479;-63
2024/04/14 07:43:33;;;;;;;3.17;3.08;;;;;;;24.23;41.98;97626.47;5264563;27;20409;-62
2024/04/14 07:46:00;;;;;;;3.15;3.05;;;;;;;24.24;41.11;97570.63;5267467;27;20006;-62
2024/04/14 07:48:28;;;;;;;3.22;3.13;;;;;;;24.04;41.24;97550.97;5267156;27;20013;-63
2024/04/14 07:50:55;;;;;;;2.95;2.85;;;;;;;24.28;41.42;97617.41;5267269;27;20007;-63
2024/04/14 07:53:22;;;;;;;3.17;3.08;;;;;;;24.35;38.91;97600.22;5267314;27;20010;-62
2024/04/14 07:55:49;;;;;;;3.08;2.97;;;;;;;23.98;40.19;97603.69;5267157;27;20397;-63
2024/04/14 07:58:16;;;;;;;3.10;3.00;;;;;;;24.22;40.18;97616.38;5266451;26;20232;-63
2024/04/14 08:00:43;;;;;;;3.15;3.05;;;;;;;24.20;40.00;97584.88;5264655;27;20006;-62
2024/04/14 08:03:10;;;;;;;3.25;3.15;;;;;;;24.62;39.75;97614.81;5265342;27;20413;-61
2024/04/14 08:05:37;;;;;;;2.97;2.88;;;;;;;24.68;39.33;97613.06;5266858;27;20022;-62
2024/04/14 08:08:08;;;;;;;3.50;3.40;;;;;;;24.75;39.53;97618.53;5267035;27;20012;-62
2024/04/14 08:10:35;;;;;;;3.05;2.95;;;;;;;24.98;39.46;97608.91;5265670;27;20458;-63
2024/04/14 08:13:02;;;;;;;3.10;3.00;;;;;;;24.75;38.87;97578.84;5267654;27;20013;-64
2024/04/14 08:15:29;;;;;;;3.25;3.15;;;;;;;25.19;38.75;97603.38;5266047;27;20021;-63
2024/04/14 08:17:57;;;;;;;3.08;2.97;;;;;;;25.42;37.88;97607.16;5267877;27;20002;-63
2024/04/14 08:20:26;;;;;;;2.95;2.85;;;;;;;25.42;37.66;97604.31;5266981;27;20010;-62
2024/04/14 08:22:53;;;;;;;3.35;3.25;;;;;;;25.33;37.44;97573.75;5266888;27;20025;-63
2024/04/14 08:25:20;;;;;;;3.25;3.15;;;;;;;25.80;37.06;97607.91;5266741;27;20006;-61
2024/04/14 08:27:47;;;;;;;3.33;3.22;;;;;;;25.85;36.18;97581.75;5266727;27;20586;-61
2024/04/14 08:30:14;;;;;;;3.22;3.13;;;;;;;26.00;36.70;97611.28;5265263;27;20482;-62
2024/04/14 08:32:42;;;;;;;3.08;2.97;;;;;;;26.02;36.08;97600.25;5265433;27;20454;-62
2024/04/14 08:35:09;;;;;;;3.20;3.10;;;;;;;25.85;35.84;97553.34;5265316;27;20014;-63
2024/04/14 08:37:36;;;;;;;3.45;3.35;;;;;;;26.36;36.32;97594.53;5266856;27;20002;-62
2024/04/14 08:40:03;;;;;;;3.20;3.10;;;;;;;26.37;35.52;97562.03;5266575;27;20030;-62
2024/04/14 08:42:33;;;;;;;2.90;2.80;;;;;;;25.58;37.03;97595.66;5265160;27;20057;-62
2024/04/14 08:45:00;;;;;;;3.35;3.25;;;;;;;25.20;36.65;97548.25;5266242;27;20017;-62
2024/04/14 08:47:28;;;;;;;3.60;3.50;;;;;;;25.48;36.49;97559.94;5264700;27;20014;-62
2024/04/14 08:49:56;;;;;;;3.33;3.22;;;;;;;25.65;36.07;97544.34;5266727;26;20021;-64
2024/04/14 08:52:26;;;;;;;3.50;3.40;;;;;;;25.83;35.85;97539.63;5266894;26;20003;-63
2024/04/14 08:54:53;;;;;;;3.50;3.40;;;;;;;26.19;35.94;97593.16;5272313;26;20038;-63
2024/04/14 08:57:20;;;;;;;3.40;3.30;;;;;;;25.81;35.82;97530.00;5265786;27;20020;-63
2024/04/14 08:59:50;;;;;;;3.60;3.50;;;;;;;26.18;35.20;97580.19;5265701;27;20002;-63
2024/04/14 09:02:18;;;;;;;3.63;3.53;;;;;;;26.00;34.43;97545.97;5265346;27;20014;-62
2024/04/14 09:04:47;;;;;;;3.42;3.33;;;;;;;26.42;34.83;97584.16;5265625;27;20021;-63
2024/04/14 09:07:14;;;;;;;3.83;3.72;;;;;;;26.64;34.64;97593.50;5264696;27;20324;-60
2024/04/14 09:09:42;;;;;;;3.75;3.65;;;;;;;26.50;34.52;97531.50;5263694;27;20014;-61
2024/04/14 09:12:12;;;;;;;4.20;4.10;;;;;;;27.11;34.56;97579.88;5264771;27;20084;-62
2024/04/14 09:14:46;;;;;;;3.97;3.88;;;;;;;27.14;33.47;97570.41;5266728;27;20349;-61
2024/04/14 09:17:13;;;;;;;3.65;3.55;;;;;;;26.87;33.73;97560.97;5264525;27;20010;-61
2024/04/14 09:19:42;;;;;;;3.70;3.60;;;;;;;27.29;33.89;97564.97;5266063;27;20021;-61
2024/04/14 09:22:09;;;;;;;3.83;3.72;;;;;;;27.43;32.96;97558.69;5266357;27;20599;-62
2024/04/14 09:24:36;;;;;;;4.00;3.90;;;;;;;27.38;32.82;97545.88;5265991;26;20046;-62
2024/04/14 09:27:04;;;;;;;3.70;3.60;;;;;;;27.18;33.18;97548.31;5265797;27;20002;-61
2024/04/14 09:29:31;;;;;;;3.97;3.87;;;;;;;27.20;33.14;97551.50;4348361;26;9999798;-61
2024/04/14 09:31:58;;;;;;;4.00;3.90;;;;;;;27.37;32.75;97547.16;5284061;26;20248;-62
2024/04/14 09:34:28;;;;;;;4.18;4.07;;;;;;;27.10;32.93;97501.50;5267309;27;20461;-61
2024/04/14 09:36:55;;;;;;;3.92;3.83;;;;;;;27.34;32.66;97545.25;5266516;27;20016;-60
2024/04/14 09:39:26;;;;;;;3.90;3.80;;;;;;;27.22;33.11;97522.56;5264047;27;20021;-62
2024/04/14 09:41:55;;;;;;;4.10;4.00;;;;;;;27.68;32.97;97519.38;5230524;27;20020;-62
2024/04/14 09:44:23;;;;;;;3.92;3.83;;;;;;;27.80;32.39;97515.63;5263422;27;20054;-61
2024/04/14 09:46:51;;;;;;;3.50;3.40;;;;;;;27.34;33.61;97539.56;5265829;27;20473;-62
2024/04/14 09:49:25;;;;;;;4.10;4.00;;;;;;;27.31;33.87;97523.41;5265431;27;20018;-61
2024/04/14 09:51:54;;;;;;;4.00;3.90;;;;;;;27.49;32.28;97495.00;5265712;27;20674;-62
2024/04/14 09:54:22;;;;;;;4.05;3.95;;;;;;;27.78;31.63;97535.22;5265675;27;20528;-62
2024/04/14 09:56:49;;;;;;;3.83;3.72;;;;;;;27.54;31.43;97491.53;5261091;26;20441;-62
2024/04/14 09:59:16;;;;;;;3.90;3.80;;;;;;;27.77;31.07;97502.28;5263920;27;20025;-62
2024/04/14 10:01:45;;;;;;;4.03;3.92;;;;;;;21.17;31.00;96443.16;5265425;27;20003;-61
2024/04/14 10:04:13;;;;;;;3.97;3.88;;;;;;;26.91;31.78;97470.59;5265871;27;20002;-62
2024/04/14 10:06:42;;;;;;;4.00;3.90;;;;;;;27.58;30.78;97531.22;5267889;27;20006;-62
2024/04/14 10:09:11;;;;;;;3.70;3.60;;;;;;;27.75;30.85;97523.97;5269789;27;20345;-61
2024/04/14 10:11:38;;;;;;;3.83;3.72;;;;;;;27.70;30.57;97521.75;5268966;27;20464;-63
2024/04/14 10:14:05;;;;;;;4.00;3.90;;;;;;;28.18;30.90;97518.78;5268666;27;20018;-62
2024/04/14 10:16:32;;;;;;;4.00;3.90;;;;;;;28.76;29.87;97523.47;5268941;27;20008;-62
2024/04/14 10:19:04;;;;;;;4.25;4.15;;;;;;;28.99;29.79;97511.38;5266752;27;20090;-64
2024/04/14 10:21:32;;;;;;;4.05;3.95;;;;;;;28.93;28.96;97481.88;5267855;27;20010;-61
2024/04/14 10:24:02;;;;;;;4.57;4.47;;;;;;;29.24;28.92;97508.13;5268377;27;20006;-62
2024/04/14 10:26:31;;;;;;;4.13;4.03;;;;;;;29.08;28.95;97494.25;5268178;27;20039;-61
2024/04/14 10:28:58;;;;;;;4.40;4.30;;;;;;;29.14;28.96;97509.44;5267940;27;20006;-62
2024/04/14 10:31:31;;;;;;;3.92;3.83;;;;;;;29.17;28.78;97503.53;5267738;27;20006;-63
2024/04/14 10:34:05;;;;;;;;;;;;;;;29.27;28.77;97502.25;5269003;27;20355;-61
2024/04/14 10:36:34;;;;;;;4.30;4.20;;;;;;;28.94;29.23;97517.72;5268271;27;19987;-61
2024/04/14 10:39:04;;;;;;;4.47;4.38;;;;;;;29.21;28.57;97500.53;5268258;27;20021;-61
2024/04/14 10:41:31;;;;;;;4.43;4.32;;;;;;;28.82;29.23;97496.69;5268208;27;20078;-62
2024/04/14 10:43:58;;;;;;;4.05;3.95;;;;;;;28.43;29.52;97474.91;5266206;27;20009;-62
2024/04/14 10:46:25;;;;;;;4.07;3.97;;;;;;;28.13;30.05;97499.50;5268405;27;20013;-63
2024/04/14 10:48:54;;;;;;;4.32;4.22;;;;;;;27.70;30.83;97494.06;5268276;27;20002;-60
2024/04/14 10:51:23;;;;;;;4.20;4.10;;;;;;;27.98;30.11;97464.38;5267755;27;20081;-60
2024/04/14 10:53:53;;;;;;;4.10;4.00;;;;;;;28.53;30.06;97482.22;5268035;27;20018;-62
2024/04/14 10:56:20;;;;;;;3.78;3.67;;;;;;;28.83;29.63;97483.22;5267504;27;20442;-61
2024/04/14 10:58:47;;;;;;;4.22;4.13;;;;;;;29.09;29.49;97475.84;5266490;27;20003;-62
2024/04/14 11:01:15;;;;;;;4.22;4.13;;;;;;;28.22;29.61;97438.84;5267860;27;20002;-62
2024/04/14 11:03:42;;;;;;;4.00;3.90;;;;;;;28.67;29.68;97486.44;5268963;27;20006;-62
2024/04/14 11:06:10;;;;;;;3.78;3.67;;;;;;;27.76;30.67;97466.56;5268276;27;20089;-62
2024/04/14 11:08:38;;;;;;;4.03;3.92;;;;;;;27.38;30.52;97483.25;5266762;27;20014;-63
2024/04/14 11:11:06;;;;;;;4.05;3.95;;;;;;;27.77;30.95;97459.56;5265776;27;20435;-62
2024/04/14 11:13:34;;;;;;;4.07;3.97;;;;;;;27.72;30.74;97479.38;5268525;27;20527;-61
2024/04/14 11:16:02;;;;;;;3.97;3.88;;;;;;;28.28;30.58;97476.81;5267577;27;20003;-62
2024/04/14 11:18:30;;;;;;;4.05;3.95;;;;;;;28.42;30.44;97470.50;5266335;27;20002;-62
2024/04/14 11:20:57;;;;;;;4.57;4.47;;;;;;;28.97;29.11;97465.41;5267263;27;20002;-62
2024/04/14 11:23:27;;;;;;;4.28;4.18;;;;;;;28.15;30.04;97462.75;5268455;27;20038;-64
2024/04/14 11:25:54;;;;;;;4.47;4.38;;;;;;;28.57;29.20;97454.31;5267665;27;20006;-62
2024/04/14 11:28:21;;;;;;;3.85;3.75;;;;;;;28.89;29.30;97424.22;5267661;27;20010;-61
2024/04/14 11:30:51;;;;;;;4.20;4.10;;;;;;;29.03;28.81;97412.13;5267000;27;20015;-62
2024/04/14 11:33:22;;;;;;;4.28;4.18;;;;;;;29.58;28.96;97466.84;5267595;27;20373;-64
2024/04/14 11:36:00;;;;;;;4.65;4.55;;;;;;;29.73;28.93;97437.06;5267252;27;20089;-64